Terminal Aerodrome Forecast
Issued by NWS

Home | Current Version | Previous Version | Text Only | Print | Product List | Glossary On
Versions: 1 2 3 4 5 6 7 8 9 10 11 12 13 14 15 16 17
000
FTUS43 KPAH 200648 AAA
TAFCGI
TAF AMD
KCGI 200648Z 2007/2106 14004KT P6SM SCT035 BKN150
      TEMPO 2007/2011 BKN035
     FM201500 20009G16KT P6SM SCT050 BKN150
     FM210300 24004KT P6SM OVC030=

USA.gov is the U.S. government's official web portal to all federal, state and local government web resources and services.